Time;durP1;ratioP1;P1;durP2;ratioP2;P2;SDS_P1;SDS_P2;PMS_P1;PMS_P2;Temp;Humidity;BMP_temperature;BMP_pressure;BME280_temperature;BME280_humidity;BME280_pressure;Samples;Min_cycle;Max_cycle;Signal;HPM_P1;HPM_P2
2023/06/10 00:02:16;;;;;;;12.07;7.65;;;22.90;75.40;;;;;;4994834;28;20596;-81
2023/06/10 00:04:42;;;;;;;8.73;7.28;;;22.90;75.50;;;;;;5012172;28;20049;-80
2023/06/10 00:07:10;;;;;;;11.32;7.78;;;22.80;75.50;;;;;;4994965;28;20095;-80
2023/06/10 00:09:37;;;;;;;8.70;7.03;;;22.80;76.20;;;;;;5010882;28;20734;-80
2023/06/10 00:12:07;;;;;;;9.25;7.40;;;22.70;76.10;;;;;;4993442;28;20524;-79
2023/06/10 00:14:35;;;;;;;7.95;7.13;;;22.70;76.80;;;;;;5011700;28;20535;-80
2023/06/10 00:17:00;;;;;;;8.75;7.28;;;22.70;76.80;;;;;;5012391;28;20628;-80
2023/06/10 00:19:29;;;;;;;9.65;7.20;;;22.60;77.30;;;;;;5010542;28;20652;-80
2023/06/10 00:21:55;;;;;;;10.00;7.90;;;22.50;77.50;;;;;;5006700;28;20087;-80
2023/06/10 00:24:21;;;;;;;9.70;7.20;;;22.50;77.60;;;;;;5004780;28;20121;-80
2023/06/10 00:26:47;;;;;;;9.60;7.38;;;22.50;77.80;;;;;;4989050;28;20032;-80
2023/06/10 00:29:14;;;;;;;9.43;7.57;;;22.50;78.20;;;;;;4988830;28;20030;-79
2023/06/10 00:31:39;;;;;;;10.32;7.65;;;22.40;78.30;;;;;;4995301;28;20254;-80
2023/06/10 00:34:06;;;;;;;12.02;8.10;;;22.40;78.40;;;;;;5012450;28;20044;-79
2023/06/10 00:36:31;;;;;;;10.13;7.85;;;22.40;78.70;;;;;;4995506;28;20113;-79
2023/06/10 00:38:57;;;;;;;17.80;8.65;;;22.40;78.60;;;;;;5009622;28;20898;-80
2023/06/10 00:41:23;;;;;;;9.85;8.15;;;22.30;78.90;;;;;;5011935;28;20029;-79
2023/06/10 00:43:49;;;;;;;11.20;8.35;;;22.30;79.70;;;;;;5011977;28;20480;-80
2023/06/10 00:46:15;;;;;;;11.60;7.85;;;22.30;79.10;;;;;;4995772;28;20425;-79
2023/06/10 00:48:43;;;;;;;9.85;7.72;;;22.30;79.30;;;;;;5011554;28;20121;-81
2023/06/10 00:51:10;;;;;;;10.00;7.53;;;22.30;79.30;;;;;;4996442;28;20312;-80
2023/06/10 00:53:38;;;;;;;9.30;7.57;;;22.30;79.90;;;;;;4994757;28;20412;-80
2023/06/10 00:56:04;;;;;;;11.10;7.93;;;22.20;79.80;;;;;;4994970;28;20117;-80
2023/06/10 00:58:31;;;;;;;16.23;7.65;;;22.20;80.00;;;;;;4994933;28;20109;-80
2023/06/10 01:00:57;;;;;;;16.73;8.07;;;22.10;79.70;;;;;;5010286;28;20234;-79
2023/06/10 01:03:23;;;;;;;9.80;7.50;;;22.10;80.40;;;;;;5013274;28;20029;-80
2023/06/10 01:06:09;;;;;;;9.55;7.32;;;22.10;81.30;;;;;;5010984;28;20018;-79
2023/06/10 01:08:41;;;;;;;14.38;8.18;;;22.00;80.50;;;;;;4994587;28;20128;-80
2023/06/10 01:11:13;;;;;;;12.30;7.75;;;21.90;80.70;;;;;;5010938;28;20072;-80
2023/06/10 01:13:41;;;;;;;11.63;7.95;;;21.90;80.60;;;;;;5012329;28;20030;-80
2023/06/10 01:16:07;;;;;;;11.98;7.93;;;22.00;80.70;;;;;;5011751;28;20022;-80
2023/06/10 01:18:33;;;;;;;9.77;7.90;;;21.80;80.50;;;;;;5011626;28;20036;-80
2023/06/10 01:20:59;;;;;;;12.00;7.95;;;21.80;80.70;;;;;;5011635;28;20029;-79
2023/06/10 01:23:24;;;;;;;11.45;7.35;;;21.70;80.90;;;;;;5010039;28;20037;-80
2023/06/10 01:26:08;;;;;;;11.68;7.50;;;21.70;81.20;;;;;;5012234;28;20485;-80
2023/06/10 01:28:39;;;;;;;;;;;21.70;80.90;;;;;;5010368;28;20310;-80
2023/06/10 01:31:22;;;;;;;12.00;7.57;;;21.60;81.00;;;;;;5012355;28;19920;-80
2023/06/10 01:33:51;;;;;;;12.20;7.70;;;21.60;80.80;;;;;;5010520;28;20065;-79
2023/06/10 01:36:18;;;;;;;9.13;7.32;;;21.60;80.80;;;;;;5011018;28;20025;-79
2023/06/10 01:38:45;;;;;;;9.98;7.72;;;21.60;80.80;;;;;;5011642;28;20026;-78
2023/06/10 01:41:13;;;;;;;11.30;7.32;;;21.50;80.70;;;;;;5016435;28;20507;-79
2023/06/10 01:43:39;;;;;;;9.85;7.50;;;21.50;80.50;;;;;;5017328;28;20022;-79
2023/06/10 01:46:06;;;;;;;10.48;7.72;;;21.50;80.40;;;;;;4998396;28;20116;-80
2023/06/10 01:48:32;;;;;;;10.32;7.43;;;21.50;80.30;;;;;;5014099;28;20067;-80
2023/06/10 01:50:58;;;;;;;7.93;7.13;;;21.50;80.30;;;;;;4996893;28;20514;-79
2023/06/10 01:53:24;;;;;;;14.75;7.53;;;21.50;80.10;;;;;;5015606;28;20875;-80
2023/06/10 01:55:50;;;;;;;9.98;7.13;;;21.50;80.00;;;;;;5014646;28;20018;-80
2023/06/10 01:58:16;;;;;;;10.05;7.20;;;21.50;80.20;;;;;;5016189;28;20031;-79
2023/06/10 02:00:42;;;;;;;11.00;7.75;;;21.50;80.30;;;;;;5006321;28;20037;-80
2023/06/10 02:03:07;;;;;;;10.73;7.32;;;21.40;80.30;;;;;;5016047;28;20056;-79
2023/06/10 02:05:33;;;;;;;8.63;7.47;;;21.30;80.40;;;;;;4997825;28;20144;-79
2023/06/10 02:07:59;;;;;;;10.82;7.15;;;21.30;80.60;;;;;;5013213;28;20029;-80
2023/06/10 02:10:25;;;;;;;9.90;7.63;;;21.30;80.70;;;;;;4996881;28;20072;-79
2023/06/10 02:12:50;;;;;;;11.13;7.25;;;21.20;80.70;;;;;;4998700;28;20156;-79
2023/06/10 02:15:16;;;;;;;8.48;7.18;;;21.20;80.80;;;;;;5012404;28;20010;-79
2023/06/10 02:17:42;;;;;;;14.70;7.50;;;21.20;80.70;;;;;;5015124;28;20032;-80
2023/06/10 02:20:10;;;;;;;10.43;6.57;;;21.20;80.90;;;;;;5013251;28;20479;-80
2023/06/10 02:22:36;;;;;;;10.90;7.72;;;21.20;80.90;;;;;;5013676;28;21098;-80
2023/06/10 02:25:03;;;;;;;8.02;6.63;;;21.20;80.90;;;;;;5016058;28;20104;-80
2023/06/10 02:27:30;;;;;;;9.73;7.40;;;21.10;81.20;;;;;;5008379;28;20039;-79
2023/06/10 02:29:56;;;;;;;7.60;6.53;;;21.10;81.40;;;;;;4996165;28;20364;-80
2023/06/10 02:32:22;;;;;;;14.07;7.03;;;21.10;81.60;;;;;;5013948;28;20041;-79
2023/06/10 02:34:51;;;;;;;12.20;7.47;;;21.00;81.50;;;;;;5013051;28;20564;-80
2023/06/10 02:37:17;;;;;;;14.95;7.25;;;21.00;81.80;;;;;;5014403;28;20128;-80
2023/06/10 02:39:42;;;;;;;8.45;6.88;;;21.00;81.90;;;;;;4993564;28;20493;-82
2023/06/10 02:42:08;;;;;;;10.02;7.13;;;20.90;82.00;;;;;;4998161;28;20044;-80
2023/06/10 02:44:34;;;;;;;11.40;7.35;;;20.90;82.00;;;;;;5010968;28;20033;-80
2023/06/10 02:47:00;;;;;;;8.85;7.38;;;20.90;82.20;;;;;;5011486;28;20104;-79
2023/06/10 02:49:28;;;;;;;12.52;6.95;;;20.90;82.50;;;;;;5012162;28;20025;-80
2023/06/10 02:51:54;;;;;;;11.02;6.78;;;20.80;82.60;;;;;;4993629;28;20025;-79
2023/06/10 02:54:20;;;;;;;11.82;7.22;;;20.80;82.80;;;;;;5012229;28;20033;-79
2023/06/10 02:56:47;;;;;;;9.13;6.93;;;20.80;82.80;;;;;;5014757;28;20083;-79
2023/06/10 02:59:13;;;;;;;11.15;6.68;;;20.80;83.10;;;;;;4996731;28;20049;-80
2023/06/10 03:01:40;;;;;;;15.65;7.68;;;20.70;83.20;;;;;;4995651;28;20464;-81
2023/06/10 03:04:06;;;;;;;11.13;7.18;;;20.70;83.30;;;;;;4998101;28;21031;-80
2023/06/10 03:06:35;;;;;;;14.48;6.68;;;20.60;83.30;;;;;;4996223;28;20030;-80
2023/06/10 03:09:01;;;;;;;12.10;6.72;;;20.60;83.40;;;;;;4996838;28;20540;-80
2023/06/10 03:11:32;;;;;;;12.25;7.10;;;20.60;84.00;;;;;;4997202;28;20022;-81
2023/06/10 03:13:57;;;;;;;10.40;7.60;;;20.50;84.00;;;;;;4997882;28;20034;-80
2023/06/10 03:16:25;;;;;;;16.13;7.95;;;20.50;84.40;;;;;;5012408;28;20528;-80
2023/06/10 03:18:51;;;;;;;11.93;6.90;;;20.50;84.30;;;;;;5011685;28;20483;-80
2023/06/10 03:21:16;;;;;;;12.65;7.10;;;20.50;84.50;;;;;;5013716;28;20718;-81
2023/06/10 03:23:42;;;;;;;12.90;6.78;;;20.50;84.40;;;;;;4996115;28;20219;-80
2023/06/10 03:26:10;;;;;;;12.93;6.28;;;20.50;84.50;;;;;;4994935;28;20124;-80
2023/06/10 03:28:38;;;;;;;17.33;7.30;;;20.50;84.60;;;;;;4997148;28;20066;-80
2023/06/10 03:31:03;;;;;;;14.82;7.60;;;20.40;85.50;;;;;;5013605;28;20638;-80
2023/06/10 03:33:32;;;;;;;11.80;6.55;;;20.40;84.80;;;;;;5011152;28;20025;-80
2023/06/10 03:35:58;;;;;;;17.13;7.22;;;20.40;84.60;;;;;;5013499;28;20100;-80
2023/06/10 03:38:23;;;;;;;10.63;6.85;;;20.40;84.80;;;;;;4996654;28;20032;-80
2023/06/10 03:40:49;;;;;;;11.20;6.32;;;20.40;84.70;;;;;;5014326;28;20036;-81
2023/06/10 03:43:14;;;;;;;15.82;6.85;;;20.50;84.70;;;;;;5012126;28;20075;-80
2023/06/10 03:45:41;;;;;;;7.38;6.47;;;20.40;84.80;;;;;;4991940;28;20029;-80
2023/06/10 03:48:08;;;;;;;10.95;6.68;;;20.40;84.90;;;;;;5014350;28;20033;-80
2023/06/10 03:50:36;;;;;;;20.08;7.07;;;20.40;85.10;;;;;;5013295;28;20901;-80
2023/06/10 03:53:02;;;;;;;14.13;7.25;;;20.40;85.10;;;;;;5013166;28;20037;-80
2023/06/10 03:55:28;;;;;;;8.95;6.15;;;20.40;85.10;;;;;;4996971;28;20022;-80
2023/06/10 03:57:53;;;;;;;14.07;6.25;;;20.40;85.20;;;;;;5011205;28;20550;-81
2023/06/10 04:00:21;;;;;;;14.25;6.38;;;20.50;85.10;;;;;;5011989;28;20107;-80
2023/06/10 04:02:49;;;;;;;8.70;6.57;;;20.50;85.00;;;;;;5011830;28;20025;-80
2023/06/10 04:05:15;;;;;;;15.63;6.60;;;20.50;85.20;;;;;;5013613;28;20485;-81
2023/06/10 04:07:43;;;;;;;10.35;6.47;;;20.50;85.10;;;;;;4994826;28;20124;-81
2023/06/10 04:10:10;;;;;;;12.20;6.05;;;20.50;84.90;;;;;;5013083;28;20021;-80
2023/06/10 04:12:36;;;;;;;10.55;6.20;;;20.50;84.70;;;;;;5013699;28;20034;-80
2023/06/10 04:15:04;;;;;;;11.27;6.93;;;20.50;85.00;;;;;;5012729;28;20044;-81
2023/06/10 04:17:30;;;;;;;11.90;6.78;;;20.50;85.00;;;;;;5012336;28;20025;-81
2023/06/10 04:19:56;;;;;;;10.65;6.57;;;20.60;84.80;;;;;;4995236;28;20034;-80
2023/06/10 04:22:22;;;;;;;9.38;6.20;;;20.60;84.80;;;;;;4994604;28;20029;-80
2023/06/10 04:24:48;;;;;;;10.32;6.20;;;20.60;84.70;;;;;;5011931;28;20558;-80
2023/06/10 04:27:14;;;;;;;9.80;6.15;;;20.70;84.50;;;;;;5011832;28;20120;-81
2023/06/10 04:29:40;;;;;;;13.43;6.88;;;20.70;84.30;;;;;;5014474;28;20799;-80
2023/06/10 04:32:06;;;;;;;14.60;7.10;;;20.70;84.30;;;;;;4996139;28;20614;-81
2023/06/10 04:34:33;;;;;;;10.43;6.32;;;20.80;84.10;;;;;;4996330;28;20460;-80
2023/06/10 04:36:59;;;;;;;14.60;6.78;;;20.80;84.00;;;;;;5012804;28;20021;-81
2023/06/10 04:39:25;;;;;;;10.30;6.15;;;20.80;84.00;;;;;;4995444;28;20040;-80
2023/06/10 04:41:51;;;;;;;10.38;6.25;;;20.90;83.70;;;;;;4993848;28;20560;-81
2023/06/10 04:44:18;;;;;;;11.27;5.68;;;20.90;83.60;;;;;;4995365;28;20120;-81
2023/06/10 04:46:44;;;;;;;9.10;6.00;;;21.00;83.40;;;;;;5011327;28;20037;-80
2023/06/10 04:49:09;;;;;;;9.75;6.07;;;21.00;83.30;;;;;;5013888;28;20032;-81
2023/06/10 04:51:35;;;;;;;18.60;6.88;;;21.10;83.40;;;;;;5012455;28;20018;-81
2023/06/10 04:54:04;;;;;;;11.75;6.18;;;21.10;83.00;;;;;;4995113;28;20060;-80
2023/06/10 04:56:30;;;;;;;8.02;5.60;;;21.20;82.80;;;;;;5014244;28;20524;-82
2023/06/10 04:58:57;;;;;;;7.55;5.35;;;21.20;82.90;;;;;;4994846;28;20018;-82
2023/06/10 05:01:22;;;;;;;10.40;5.82;;;21.20;82.60;;;;;;4996865;28;20049;-82
2023/06/10 05:03:48;;;;;;;9.00;5.65;;;21.30;82.50;;;;;;5014075;28;20049;-82
2023/06/10 05:06:14;;;;;;;11.57;5.68;;;21.40;82.40;;;;;;4995261;28;20038;-83
2023/06/10 05:08:39;;;;;;;9.30;5.10;;;21.40;82.20;;;;;;4996323;28;20025;-82
2023/06/10 05:11:06;;;;;;;8.65;5.35;;;21.50;82.20;;;;;;4993635;28;20056;-83
2023/06/10 05:13:31;;;;;;;7.95;5.78;;;21.50;82.20;;;;;;4997368;28;20034;-84
2023/06/10 05:15:57;;;;;;;11.88;5.80;;;21.50;81.70;;;;;;5014723;28;20567;-82
2023/06/10 05:18:23;;;;;;;12.85;5.90;;;21.50;82.00;;;;;;5017429;28;20096;-83
2023/06/10 05:20:51;;;;;;;15.18;6.20;;;21.50;81.70;;;;;;5015826;28;20021;-82
2023/06/10 05:23:16;;;;;;;15.48;5.88;;;21.60;81.80;;;;;;4999008;28;20025;-83
2023/06/10 05:25:42;;;;;;;9.27;5.68;;;21.60;81.40;;;;;;5017341;28;20697;-80
2023/06/10 05:30:43;;;;;;;15.60;5.20;;;21.70;81.10;;;;;;5031078;22;20077;-81
2023/06/10 05:33:09;;;;;;;8.25;5.53;;;21.80;81.10;;;;;;5015593;28;20782;-80
2023/06/10 05:35:35;;;;;;;9.70;5.15;;;21.80;80.80;;;;;;5016758;28;20091;-81
2023/06/10 05:38:00;;;;;;;11.82;5.82;;;21.90;80.30;;;;;;5015887;28;20029;-81
2023/06/10 05:40:26;;;;;;;12.70;5.03;;;21.90;80.60;;;;;;5015900;28;20018;-80
2023/06/10 05:42:53;;;;;;;8.68;5.35;;;21.90;80.40;;;;;;5000446;28;20671;-81
2023/06/10 05:45:19;;;;;;;9.88;5.13;;;22.00;80.50;;;;;;5012661;28;20052;-81
2023/06/10 05:47:45;;;;;;;13.52;5.85;;;22.00;80.30;;;;;;4997108;28;20026;-80
2023/06/10 05:50:10;;;;;;;12.55;5.18;;;22.10;80.20;;;;;;4999516;28;20025;-80
2023/06/10 05:52:36;;;;;;;6.68;5.18;;;22.10;79.90;;;;;;4997758;28;20460;-81
2023/06/10 05:55:08;;;;;;;8.55;5.13;;;22.20;79.40;;;;;;4999217;28;20029;-80
2023/06/10 05:57:34;;;;;;;7.32;5.32;;;22.30;79.50;;;;;;4998995;28;20025;-80
2023/06/10 05:59:59;;;;;;;11.23;6.10;;;22.40;79.40;;;;;;5017549;28;20100;-80
2023/06/10 06:02:25;;;;;;;11.65;5.65;;;22.40;79.10;;;;;;5016024;28;20029;-81
2023/06/10 06:04:51;;;;;;;11.60;5.90;;;22.60;78.80;;;;;;4997212;28;20103;-81
2023/06/10 06:07:16;;;;;;;9.15;5.40;;;22.60;78.50;;;;;;5015681;28;21247;-80
2023/06/10 06:09:42;;;;;;;8.82;5.15;;;22.70;78.10;;;;;;4999893;28;20041;-83
2023/06/10 06:12:08;;;;;;;13.18;5.78;;;22.80;77.80;;;;;;5000390;28;20091;-83
2023/06/10 06:14:39;;;;;;;14.95;4.85;;;22.80;77.50;;;;;;5017265;28;20021;-83
2023/06/10 06:17:05;;;;;;;7.95;4.72;;;22.90;77.70;;;;;;4997885;28;20115;-83
2023/06/10 06:19:30;;;;;;;8.35;5.15;;;23.00;78.00;;;;;;4998798;28;20083;-82
2023/06/10 06:21:56;;;;;;;7.63;4.97;;;23.10;77.90;;;;;;5015088;28;20033;-82
2023/06/10 06:24:24;;;;;;;11.27;5.40;;;23.20;77.50;;;;;;4997662;28;21123;-82
2023/06/10 06:26:50;;;;;;;14.85;5.65;;;23.20;77.00;;;;;;5015294;28;20212;-81
2023/06/10 06:29:15;;;;;;;6.22;5.10;;;23.30;76.00;;;;;;5020395;28;20052;-82
2023/06/10 06:31:41;;;;;;;7.88;5.03;;;23.30;76.30;;;;;;4999209;28;20099;-82
2023/06/10 06:34:09;;;;;;;12.45;5.22;;;23.40;76.30;;;;;;4999039;28;20045;-82
2023/06/10 06:36:35;;;;;;;10.82;5.53;;;23.50;76.30;;;;;;4998706;28;20032;-83
2023/06/10 06:39:00;;;;;;;7.75;4.60;;;23.60;76.70;;;;;;5016465;28;20025;-82
2023/06/10 06:41:29;;;;;;;6.68;4.90;;;23.60;75.60;;;;;;4999564;28;20049;-83
2023/06/10 06:43:55;;;;;;;7.53;4.85;;;23.70;75.50;;;;;;5016860;28;20417;-82
2023/06/10 06:46:22;;;;;;;8.80;5.03;;;23.80;75.10;;;;;;4998026;28;20025;-83
2023/06/10 06:48:48;;;;;;;13.65;5.30;;;23.80;74.00;;;;;;4998385;28;20017;-83
2023/06/10 06:51:13;;;;;;;7.50;4.35;;;23.80;74.00;;;;;;5014221;28;20508;-82
2023/06/10 06:53:44;;;;;;;8.38;5.00;;;23.90;74.20;;;;;;5000130;28;20460;-81
2023/06/10 06:56:13;;;;;;;13.07;5.50;;;23.90;73.10;;;;;;4999179;28;20045;-80
2023/06/10 06:58:38;;;;;;;6.53;4.35;;;23.80;73.60;;;;;;5014309;28;20026;-83
2023/06/10 07:01:04;;;;;;;8.82;5.38;;;24.00;74.10;;;;;;5015038;28;20040;-81
2023/06/10 07:03:30;;;;;;;14.73;5.50;;;24.00;73.80;;;;;;5014524;28;20592;-81
2023/06/10 07:05:55;;;;;;;10.07;5.22;;;24.20;73.90;;;;;;5013540;28;20032;-80
2023/06/10 07:08:21;;;;;;;6.50;4.82;;;24.20;72.70;;;;;;5013586;28;20508;-81
2023/06/10 07:10:47;;;;;;;8.57;4.80;;;24.20;72.90;;;;;;4994673;28;20025;-81
2023/06/10 07:13:12;;;;;;;9.90;4.43;;;24.30;73.40;;;;;;5015264;28;20437;-81
2023/06/10 07:15:39;;;;;;;10.10;5.00;;;24.40;73.10;;;;;;5013931;28;20014;-83
2023/06/10 07:18:04;;;;;;;9.55;5.10;;;24.60;72.30;;;;;;5013037;28;20104;-83
2023/06/10 07:20:30;;;;;;;29.75;12.93;;;24.70;72.60;;;;;;5000285;28;20108;-83
2023/06/10 07:22:55;;;;;;;63.58;25.50;;;24.90;72.10;;;;;;5015200;28;20026;-82
2023/06/10 07:25:21;;;;;;;7.15;4.90;;;24.90;70.90;;;;;;4998977;28;20120;-83
2023/06/10 07:27:47;;;;;;;8.32;5.10;;;25.10;70.40;;;;;;4997373;28;20021;-81
2023/06/10 07:30:13;;;;;;;7.50;4.78;;;25.10;70.90;;;;;;5014151;28;20057;-83
2023/06/10 07:32:38;;;;;;;8.77;5.10;;;25.30;70.90;;;;;;4996976;28;20030;-82
2023/06/10 07:35:08;;;;;;;11.00;4.82;;;25.40;69.80;;;;;;5014311;28;20167;-80
2023/06/10 07:37:33;;;;;;;9.40;5.47;;;25.60;69.50;;;;;;5010610;28;20155;-83
2023/06/10 07:39:59;;;;;;;171.63;78.95;;;25.70;68.90;;;;;;4995870;28;20493;-82
2023/06/10 07:42:25;;;;;;;54.50;19.60;;;25.80;68.10;;;;;;4997141;28;20024;-81
2023/06/10 07:44:50;;;;;;;9.00;4.72;;;25.90;67.90;;;;;;5151000;22;20144;-82
2023/06/10 07:47:16;;;;;;;7.32;4.80;;;26.10;67.30;;;;;;5013564;28;20033;-80
2023/06/10 07:49:42;;;;;;;8.07;4.93;;;26.20;66.80;;;;;;5015366;28;20029;-81
2023/06/10 07:52:08;;;;;;;8.85;4.80;;;26.40;66.90;;;;;;4995603;28;21398;-82
2023/06/10 07:54:33;;;;;;;13.75;5.50;;;26.50;67.40;;;;;;5023028;28;20029;-79
2023/06/10 07:56:59;;;;;;;10.80;4.82;;;26.60;66.90;;;;;;4997806;28;20481;-81
2023/06/10 07:59:27;;;;;;;6.20;4.97;;;26.90;66.60;;;;;;5013860;28;20045;-79
2023/06/10 08:01:53;;;;;;;11.98;5.35;;;27.00;65.60;;;;;;5015511;28;20022;-80
2023/06/10 08:04:19;;;;;;;6.97;4.82;;;27.20;64.60;;;;;;5017012;28;20013;-80
2023/06/10 08:06:44;;;;;;;9.80;4.57;;;27.30;64.00;;;;;;5014040;28;20060;-79
2023/06/10 08:09:10;;;;;;;5.80;5.30;;;27.50;63.70;;;;;;4997300;28;20025;-82
2023/06/10 08:11:36;;;;;;;8.30;5.53;;;27.70;63.10;;;;;;5013777;28;20016;-80
2023/06/10 08:14:02;;;;;;;62.33;26.73;;;27.90;63.30;;;;;;5013052;28;20031;-80
2023/06/10 08:16:27;;;;;;;55.58;23.42;;;28.00;62.90;;;;;;5012784;28;20041;-81
2023/06/10 08:18:53;;;;;;;49.58;21.65;;;28.20;62.00;;;;;;5004686;28;20017;-81
2023/06/10 08:21:19;;;;;;;16.63;5.00;;;28.40;62.00;;;;;;5025263;28;20029;-82
2023/06/10 08:23:44;;;;;;;12.02;5.53;;;28.70;61.60;;;;;;4998142;28;20082;-81
2023/06/10 08:26:10;;;;;;;8.73;5.10;;;29.00;60.30;;;;;;5009318;28;20361;-78
2023/06/10 08:28:38;;;;;;;9.60;5.43;;;29.30;59.90;;;;;;5013463;28;20033;-78
2023/06/10 08:31:04;;;;;;;10.60;4.95;;;29.40;59.20;;;;;;5013277;28;20492;-82
2023/06/10 08:33:29;;;;;;;9.77;5.13;;;29.60;58.70;;;;;;4995947;28;20053;-81
2023/06/10 08:35:55;;;;;;;8.23;5.35;;;29.70;58.10;;;;;;5013604;28;20186;-81
2023/06/10 08:38:21;;;;;;;241.68;112.95;;;30.00;58.10;;;;;;4995884;28;20410;-83
2023/06/10 08:40:46;;;;;;;15.80;7.53;;;30.30;57.70;;;;;;4996349;28;20485;-77
2023/06/10 08:43:42;;;;;;;65.45;34.65;;;30.60;57.30;;;;;;5009891;28;20029;-77
2023/06/10 08:46:09;;;;;;;8.55;5.60;;;30.70;56.50;;;;;;5011447;28;20123;-80
2023/06/10 08:48:43;;;;;;;10.20;4.82;;;30.90;56.50;;;;;;5012605;28;20942;-80
2023/06/10 08:51:10;;;;;;;10.70;5.03;;;31.20;56.70;;;;;;5015083;28;20113;-79
2023/06/10 08:53:41;;;;;;;6.35;5.22;;;31.70;55.90;;;;;;5013718;28;20029;-81
2023/06/10 08:56:07;;;;;;;9.68;5.05;;;31.80;54.30;;;;;;4996326;28;20036;-82
2023/06/10 08:58:35;;;;;;;8.15;4.80;;;31.90;54.20;;;;;;5012689;28;20627;-83
2023/06/10 09:01:01;;;;;;;11.60;5.55;;;31.90;54.10;;;;;;5013453;28;20073;-80
2023/06/10 09:03:34;;;;;;;10.20;4.90;;;31.90;53.60;;;;;;5014097;28;20010;-81
2023/06/10 09:06:02;;;;;;;11.20;5.07;;;31.90;53.60;;;;;;4995711;28;20033;-83
2023/06/10 09:08:28;;;;;;;150.88;78.22;;;32.00;53.60;;;;;;4996240;28;20029;-80
2023/06/10 09:10:54;;;;;;;96.85;42.08;;;32.10;53.30;;;;;;5011905;28;20432;-80
2023/06/10 09:13:19;;;;;;;6.78;5.38;;;32.20;53.20;;;;;;5012715;28;20040;-83
2023/06/10 09:15:45;;;;;;;6.85;4.90;;;32.20;52.90;;;;;;5015097;28;20420;-83
2023/06/10 09:18:12;;;;;;;9.65;4.97;;;32.20;53.60;;;;;;5014426;28;20489;-84
2023/06/10 09:20:39;;;;;;;8.57;5.15;;;32.30;53.00;;;;;;5011658;28;20033;-82
2023/06/10 09:23:06;;;;;;;6.57;5.47;;;32.50;52.80;;;;;;4992602;28;20060;-83
2023/06/10 09:25:38;;;;;;;5.80;5.07;;;32.60;51.80;;;;;;5010982;28;20524;-83
2023/06/10 09:28:12;;;;;;;7.00;5.07;;;32.70;52.00;;;;;;5013557;28;21487;-83
2023/06/10 09:30:37;;;;;;;7.13;5.78;;;32.70;51.90;;;;;;5012489;28;20305;-83
2023/06/10 09:33:11;;;;;;;7.85;5.55;;;32.70;51.80;;;;;;5008671;28;20116;-83
2023/06/10 09:35:46;;;;;;;9.48;5.18;;;32.90;51.60;;;;;;5012343;28;20546;-83
2023/06/10 09:38:20;;;;;;;9.48;5.63;;;33.10;51.30;;;;;;4994246;28;20053;-84
2023/06/10 09:40:52;;;;;;;9.80;5.45;;;33.30;51.30;;;;;;5011087;28;20032;-83
2023/06/10 09:43:18;;;;;;;6.65;5.97;;;33.30;50.40;;;;;;5012939;28;20022;-83
2023/06/10 09:45:46;;;;;;;7.55;5.40;;;33.40;50.00;;;;;;5011524;28;20068;-84
2023/06/10 09:48:12;;;;;;;8.18;5.70;;;33.50;50.00;;;;;;5011101;28;20521;-84
2023/06/10 09:50:43;;;;;;;7.13;5.43;;;33.60;49.50;;;;;;5013019;28;20034;-81
2023/06/10 09:53:10;;;;;;;6.20;5.60;;;34.00;49.80;;;;;;5007389;28;20144;-84
2023/06/10 09:55:41;;;;;;;9.05;6.43;;;34.20;49.80;;;;;;5012629;28;20357;-86
2023/06/10 09:58:12;;;;;;;6.82;5.90;;;34.10;49.10;;;;;;4991874;28;20504;-83
2023/06/10 10:00:37;;;;;;;9.40;5.15;;;34.00;49.80;;;;;;4999146;28;21162;-87
2023/06/10 10:03:03;;;;;;;6.07;5.28;;;34.00;49.20;;;;;;4999964;28;20717;-89
2023/06/10 10:05:31;;;;;;;7.18;5.20;;;34.30;48.90;;;;;;5000656;28;20090;-86
2023/06/10 10:07:57;;;;;;;11.52;5.50;;;34.40;47.90;;;;;;5001170;28;20026;-89
2023/06/10 10:10:23;;;;;;;7.28;5.55;;;34.50;47.70;;;;;;5006837;28;20110;-88
2023/06/10 10:12:56;;;;;;;7.68;5.97;;;34.60;48.50;;;;;;5000526;28;20514;-89
2023/06/10 10:15:23;;;;;;;9.27;6.20;;;34.80;47.90;;;;;;5022253;28;20022;-88
2023/06/10 10:17:55;;;;;;;10.07;5.28;;;34.90;48.00;;;;;;5033949;28;20029;-89
2023/06/10 10:20:27;;;;;;;6.68;5.00;;;35.40;45.90;;;;;;5015810;28;20085;-88
2023/06/10 10:22:56;;;;;;;8.55;5.85;;;35.60;45.50;;;;;;5014900;28;20039;-85
2023/06/10 10:25:28;;;;;;;7.15;4.93;;;36.10;46.10;;;;;;5019524;28;20428;-83
2023/06/10 10:28:26;;;;;;;6.30;5.38;;;36.50;45.30;;;;;;5013840;28;20032;-86
2023/06/10 10:31:00;;;;;;;6.80;5.68;;;36.60;44.80;;;;;;4988783;28;20034;-86
2023/06/10 10:33:40;;;;;;;5.68;5.15;;;36.80;44.00;;;;;;5010774;28;20124;-84
2023/06/10 10:36:07;;;;;;;7.30;5.35;;;36.80;43.50;;;;;;4999128;28;20013;-84
2023/06/10 10:38:34;;;;;;;7.95;5.25;;;36.60;43.80;;;;;;5013120;28;20022;-82
2023/06/10 10:41:01;;;;;;;7.20;5.85;;;36.50;43.40;;;;;;4995057;28;20489;-80
2023/06/10 10:43:30;;;;;;;11.90;5.50;;;36.60;44.10;;;;;;4994112;28;20478;-82
2023/06/10 10:46:00;;;;;;;7.32;5.63;;;36.60;43.80;;;;;;5010145;28;20076;-82
2023/06/10 10:48:37;;;;;;;6.43;5.32;;;36.80;43.60;;;;;;4992549;28;20535;-83
2023/06/10 10:51:10;;;;;;;8.10;5.60;;;36.80;43.00;;;;;;5011059;28;20018;-87
2023/06/10 10:53:40;;;;;;;6.28;5.78;;;36.90;43.80;;;;;;4995891;28;20033;-82
2023/06/10 10:56:20;;;;;;;6.20;5.50;;;37.20;43.20;;;;;;5013232;28;20057;-81
2023/06/10 10:59:05;;;;;;;7.97;5.65;;;37.40;43.50;;;;;;5001891;28;20124;-82
2023/06/10 11:01:44;;;;;;;6.70;5.65;;;37.50;42.20;;;;;;5012517;28;20025;-82
2023/06/10 11:04:13;;;;;;;6.43;5.88;;;37.10;42.30;;;;;;5010769;28;20037;-80
2023/06/10 11:06:38;;;;;;;6.03;5.50;;;37.00;42.60;;;;;;5013951;28;20022;-80
2023/06/10 11:09:29;;;;;;;5.95;5.43;;;36.70;42.50;;;;;;5006215;28;20044;-82
2023/06/10 11:11:59;;;;;;;6.85;5.60;;;36.50;42.70;;;;;;4996672;28;20091;-81
2023/06/10 11:14:29;;;;;;;7.85;5.82;;;36.30;41.80;;;;;;5009957;28;20073;-82
2023/06/10 11:17:00;;;;;;;6.35;5.65;;;36.30;42.50;;;;;;5015423;28;20061;-79
2023/06/10 11:19:36;;;;;;;6.75;5.97;;;36.10;43.20;;;;;;4999947;28;20024;-82
2023/06/10 11:22:03;;;;;;;9.30;5.70;;;35.90;43.00;;;;;;5011057;28;20092;-80
2023/06/10 11:24:30;;;;;;;6.88;5.68;;;35.90;43.30;;;;;;5009848;28;20022;-82
2023/06/10 11:27:18;;;;;;;10.50;5.93;;;36.10;43.40;;;;;;4999953;28;20450;-82
2023/06/10 11:30:03;;;;;;;9.02;6.20;;;36.10;43.60;;;;;;5010764;28;20048;-82
2023/06/10 11:32:33;;;;;;;7.10;6.38;;;36.20;43.20;;;;;;5006880;28;20127;-83
2023/06/10 11:35:00;;;;;;;8.98;5.95;;;36.20;42.60;;;;;;5011565;28;20449;-76
2023/06/10 11:37:25;;;;;;;9.68;5.60;;;36.20;42.40;;;;;;5010963;28;20123;-81
2023/06/10 11:39:55;;;;;;;5.63;4.93;;;36.10;42.60;;;;;;4997440;28;20089;-81
2023/06/10 11:42:22;;;;;;;11.90;5.90;;;36.10;42.70;;;;;;5009673;28;20026;-83
2023/06/10 11:44:52;;;;;;;8.25;5.85;;;36.20;42.30;;;;;;4996363;28;20041;-83
2023/06/10 11:47:18;;;;;;;6.22;5.72;;;36.20;42.40;;;;;;5008549;28;20018;-82
2023/06/10 11:49:45;;;;;;;6.30;5.68;;;36.40;42.50;;;;;;5011129;28;20029;-81
2023/06/10 11:52:11;;;;;;;7.05;6.35;;;36.60;41.80;;;;;;5009829;28;20060;-87
2023/06/10 11:54:38;;;;;;;8.65;5.88;;;36.80;42.00;;;;;;5012415;28;20093;-83
2023/06/10 11:57:04;;;;;;;6.57;6.00;;;36.80;41.80;;;;;;4999551;28;20026;-82
2023/06/10 11:59:30;;;;;;;8.57;6.30;;;36.80;41.80;;;;;;5011240;28;20497;-85
2023/06/10 12:01:56;;;;;;;6.47;5.90;;;37.10;41.80;;;;;;5143521;22;20054;-83
2023/06/10 12:04:22;;;;;;;16.80;6.85;;;37.10;41.20;;;;;;5044276;28;20518;-82
2023/06/10 12:06:48;;;;;;;6.47;5.97;;;37.20;41.00;;;;;;5043599;28;20037;-84
2023/06/10 12:09:28;;;;;;;6.93;6.32;;;36.80;41.20;;;;;;5157180;22;20136;-84
2023/06/10 12:11:59;;;;;;;7.30;6.65;;;36.70;41.70;;;;;;5014743;28;20114;-81
2023/06/10 12:14:57;;;;;;;7.70;5.95;;;36.50;41.60;;;;;;5011062;28;20076;-81
2023/06/10 12:17:30;;;;;;;7.90;6.60;;;36.80;41.90;;;;;;5018628;28;20048;-79
2023/06/10 12:19:56;;;;;;;9.93;6.65;;;37.10;41.40;;;;;;5019767;28;20533;-82
2023/06/10 12:22:23;;;;;;;9.43;6.22;;;37.10;41.20;;;;;;5017694;28;20285;-79
2023/06/10 12:25:04;;;;;;;8.20;6.25;;;37.00;41.40;;;;;;5020646;28;20078;-86
2023/06/10 12:27:33;;;;;;;9.38;6.22;;;37.00;41.10;;;;;;4999301;28;20124;-81
2023/06/10 12:30:04;;;;;;;6.95;6.43;;;37.10;41.60;;;;;;5022061;28;20464;-86
2023/06/10 12:32:41;;;;;;;7.30;6.57;;;37.10;41.20;;;;;;5000129;28;20061;-83
2023/06/10 12:35:07;;;;;;;10.65;6.15;;;37.00;40.00;;;;;;5015395;28;20025;-85
2023/06/10 12:37:33;;;;;;;6.70;6.00;;;37.20;40.60;;;;;;5016849;28;20424;-86
2023/06/10 12:40:02;;;;;;;6.70;6.10;;;37.40;40.80;;;;;;5015227;28;20123;-85
2023/06/10 12:42:29;;;;;;;6.95;6.07;;;37.20;40.10;;;;;;5012565;28;20030;-80
2023/06/10 12:44:56;;;;;;;6.97;6.05;;;36.90;40.10;;;;;;5015883;28;20026;-79
2023/06/10 12:47:34;;;;;;;13.68;5.85;;;37.00;41.10;;;;;;5010774;28;20406;-79
2023/06/10 12:50:04;;;;;;;7.07;6.43;;;37.00;39.70;;;;;;5011849;28;20385;-80